createdAt,value
2018-08-10T00:00:57.983Z,99.90
2018-08-10T00:03:27.122Z,99.90
2018-08-10T00:05:56.098Z,99.90
2018-08-10T00:08:25.198Z,99.90
2018-08-10T00:10:54.699Z,99.90
2018-08-10T00:13:23.826Z,99.90
2018-08-10T00:15:52.931Z,99.90
2018-08-10T00:18:22.030Z,99.90
2018-08-10T00:20:50.943Z,99.90
2018-08-10T00:23:19.894Z,99.90
2018-08-10T00:25:48.920Z,99.90
2018-08-10T00:28:17.875Z,99.90
2018-08-10T00:30:47.049Z,99.90
2018-08-10T00:33:17.505Z,99.90
2018-08-10T00:35:47.585Z,99.90
2018-08-10T00:38:16.583Z,99.90
2018-08-10T00:40:45.549Z,99.90
2018-08-10T00:43:14.622Z,99.90
2018-08-10T00:45:43.705Z,99.90
2018-08-10T00:48:12.727Z,99.90
2018-08-10T00:50:41.814Z,99.90
2018-08-10T00:53:10.824Z,99.90
2018-08-10T00:55:39.839Z,99.90
2018-08-10T00:58:09.485Z,99.90
2018-08-10T01:00:38.504Z,99.90
2018-08-10T01:03:07.543Z,99.90
2018-08-10T01:05:36.506Z,99.90
2018-08-10T01:08:05.601Z,99.90
2018-08-10T01:10:34.641Z,99.90
2018-08-10T01:13:03.786Z,99.90
2018-08-10T01:15:32.775Z,99.90
2018-08-10T01:18:01.733Z,99.90
2018-08-10T01:20:30.738Z,99.90
2018-08-10T01:23:06.483Z,99.90
2018-08-10T01:25:35.639Z,99.90
2018-08-10T01:28:05.365Z,99.90
2018-08-10T01:30:35.261Z,99.90
2018-08-10T01:33:04.276Z,99.90
2018-08-10T01:35:33.324Z,99.90
2018-08-10T01:38:02.937Z,99.90
2018-08-10T01:40:32.113Z,99.90
2018-08-10T01:43:01.150Z,99.90
2018-08-10T01:45:30.184Z,99.90
2018-08-10T01:47:59.322Z,99.90
2018-08-10T01:50:28.395Z,99.90
2018-08-10T01:52:57.374Z,99.90
2018-08-10T01:55:26.804Z,99.90
2018-08-10T01:57:55.795Z,99.90
2018-08-10T02:00:24.806Z,99.90
2018-08-10T02:02:53.896Z,99.90
2018-08-10T02:05:22.904Z,99.90
2018-08-10T02:07:51.861Z,99.90
2018-08-10T02:10:21.029Z,99.90
2018-08-10T02:12:54.215Z,99.90
2018-08-10T02:15:23.269Z,99.90
2018-08-10T02:17:52.387Z,99.90
2018-08-10T02:20:23.045Z,99.90
2018-08-10T02:22:52.235Z,99.90
2018-08-10T02:25:22.702Z,99.90
2018-08-10T02:27:52.101Z,99.90
2018-08-10T02:30:21.953Z,99.90
2018-08-10T02:32:51.379Z,99.90
2018-08-10T02:35:20.548Z,99.90
2018-08-10T02:37:49.719Z,99.90
2018-08-10T02:40:20.452Z,99.90
2018-08-10T02:42:50.311Z,99.90
2018-08-10T02:45:19.654Z,99.90
2018-08-10T02:47:49.546Z,99.90
2018-08-10T02:50:18.496Z,99.90
2018-08-10T02:52:47.760Z,99.90
2018-08-10T02:55:16.735Z,99.90
2018-08-10T02:57:45.908Z,99.90
2018-08-10T03:00:16.069Z,99.90
2018-08-10T03:02:45.477Z,99.90
2018-08-10T03:05:14.627Z,99.90
2018-08-10T03:07:43.881Z,99.90
2018-08-10T03:10:13.733Z,99.90
2018-08-10T03:12:42.822Z,99.90
2018-08-10T03:15:14.076Z,99.90
2018-08-10T03:17:43.760Z,99.90
2018-08-10T03:20:12.923Z,99.90
2018-08-10T03:22:42.052Z,99.90
2018-08-10T03:25:12.439Z,99.90
2018-08-10T03:27:41.645Z,99.90
2018-08-10T03:30:11.717Z,99.90
2018-08-10T03:32:41.807Z,99.90
2018-08-10T03:35:10.896Z,99.90
2018-08-10T03:37:40.079Z,99.90
2018-08-10T03:40:11.292Z,99.90
2018-08-10T03:42:40.296Z,99.90
2018-08-10T03:45:09.535Z,99.90
2018-08-10T03:47:38.897Z,99.90
2018-08-10T03:50:09.671Z,99.90
2018-08-10T03:52:38.824Z,99.90
2018-08-10T03:55:08.563Z,99.90
2018-08-10T03:57:37.813Z,99.90
2018-08-10T04:00:08.525Z,99.90
2018-08-10T04:02:37.749Z,99.90
2018-08-10T04:05:07.597Z,99.90
2018-08-10T04:07:36.923Z,99.90
2018-08-10T04:10:06.725Z,99.90
2018-08-10T04:12:36.082Z,99.90
2018-08-10T04:15:07.237Z,99.90
2018-08-10T04:17:37.426Z,99.90
2018-08-10T04:20:06.501Z,99.90
2018-08-10T04:22:35.493Z,99.90
2018-08-10T04:25:05.206Z,99.90
2018-08-10T04:27:34.609Z,99.90
2018-08-10T04:30:04.818Z,99.90
2018-08-10T04:32:34.061Z,99.90
2018-08-10T04:35:03.478Z,99.90
2018-08-10T04:37:32.931Z,99.90
2018-08-10T04:40:01.934Z,99.90
2018-08-10T04:42:31.128Z,99.90
2018-08-10T04:45:00.297Z,99.90
2018-08-10T04:47:34.393Z,99.90
2018-08-10T04:50:03.569Z,99.90
2018-08-10T04:52:32.637Z,99.90
2018-08-10T04:55:01.699Z,99.90
2018-08-10T04:57:30.663Z,99.90
2018-08-10T04:59:59.962Z,99.90
2018-08-10T05:02:29.027Z,99.90
2018-08-10T05:04:58.145Z,99.90
2018-08-10T05:07:27.114Z,99.90
2018-08-10T05:09:56.357Z,99.90
2018-08-10T05:12:26.444Z,99.90
2018-08-10T05:14:55.533Z,99.90
2018-08-10T05:17:24.885Z,99.90
2018-08-10T05:19:53.912Z,99.90
2018-08-10T05:22:23.162Z,99.90
2018-08-10T05:24:52.190Z,99.90
2018-08-10T05:27:21.385Z,99.90
2018-08-10T05:29:50.432Z,99.90
2018-08-10T05:32:19.405Z,99.90
2018-08-10T05:34:49.614Z,99.90
2018-08-10T05:37:18.812Z,99.90
2018-08-10T05:39:48.249Z,99.90
2018-08-10T05:42:17.489Z,99.90
2018-08-10T05:44:46.542Z,99.90
2018-08-10T05:47:15.805Z,99.90
2018-08-10T05:49:44.764Z,99.90
2018-08-10T05:52:13.827Z,99.90
2018-08-10T05:54:43.917Z,99.90
2018-08-10T05:57:13.141Z,99.90
2018-08-10T05:59:42.305Z,99.90
2018-08-10T06:02:11.418Z,99.90
2018-08-10T06:04:40.439Z,99.90
2018-08-10T06:07:09.526Z,99.90
2018-08-10T06:09:38.679Z,99.90
2018-08-10T06:12:07.900Z,99.40
2018-08-10T06:14:37.025Z,99.60
2018-08-10T06:17:06.227Z,99.90
2018-08-10T06:19:35.416Z,99.90
2018-08-10T06:22:04.361Z,99.90
2018-08-10T06:24:33.602Z,99.90
2018-08-10T06:27:02.705Z,99.50
2018-08-10T06:29:31.725Z,98.80
2018-08-10T06:32:00.752Z,97.30
2018-08-10T06:34:29.833Z,97.30
2018-08-10T06:36:58.849Z,96.40
2018-08-10T06:39:28.054Z,97.50
2018-08-10T06:41:57.343Z,98.10
2018-08-10T06:44:29.161Z,97.20
2018-08-10T06:46:58.827Z,97.20
2018-08-10T06:49:28.014Z,96.30
2018-08-10T06:51:57.237Z,95.50
2018-08-10T06:54:27.491Z,94.50
2018-08-10T06:56:56.624Z,95.00
2018-08-10T06:59:25.877Z,95.20
2018-08-10T07:01:55.117Z,96.00
2018-08-10T07:04:24.153Z,96.80
2018-08-10T07:06:53.143Z,97.60
2018-08-10T07:09:22.152Z,98.20
2018-08-10T07:11:51.299Z,98.40
2018-08-10T07:14:21.559Z,99.90
2018-08-10T07:16:50.680Z,99.90
2018-08-10T07:19:19.903Z,99.90
2018-08-10T07:21:50.075Z,99.90
2018-08-10T07:24:19.193Z,99.90
2018-08-10T07:26:48.283Z,99.90
2018-08-10T07:29:17.340Z,99.30
2018-08-10T07:31:46.504Z,97.40
2018-08-10T07:34:15.568Z,96.70
2018-08-10T07:36:44.691Z,96.00
2018-08-10T07:39:13.685Z,95.60
2018-08-10T07:41:43.970Z,94.30
2018-08-10T07:44:13.529Z,93.80
2018-08-10T07:46:42.822Z,93.30
2018-08-10T07:49:11.841Z,93.00
2018-08-10T07:51:41.008Z,93.10
2018-08-10T07:54:10.113Z,93.10
2018-08-10T07:56:39.125Z,93.10
2018-08-10T07:59:08.457Z,92.90
2018-08-10T08:01:37.604Z,92.20
2018-08-10T08:04:07.111Z,92.90
2018-08-10T08:06:36.336Z,92.70
2018-08-10T08:09:08.029Z,92.50
2018-08-10T08:11:37.135Z,92.70
2018-08-10T08:14:07.530Z,92.50
2018-08-10T08:16:36.994Z,91.50
2018-08-10T08:19:06.053Z,90.80
2018-08-10T08:21:36.283Z,90.60
2018-08-10T08:24:05.687Z,90.90
2018-08-10T08:26:35.776Z,90.90
2018-08-10T08:29:05.195Z,91.20
2018-08-10T08:31:34.593Z,91.60
2018-08-10T08:34:07.700Z,90.50
2018-08-10T08:36:36.810Z,91.20
2018-08-10T08:39:27.995Z,91.50
2018-08-10T08:41:57.367Z,91.20
2018-08-10T08:44:38.282Z,91.90
2018-08-10T08:47:07.746Z,92.00
2018-08-10T08:49:37.237Z,91.10
2018-08-10T08:52:06.319Z,90.40
2018-08-10T08:55:11.665Z,88.90
2018-08-10T08:57:40.725Z,88.80
2018-08-10T09:00:13.476Z,88.00
2018-08-10T09:02:42.624Z,87.10
2018-08-10T09:05:11.679Z,87.10
2018-08-10T09:07:40.859Z,86.30
2018-08-10T09:10:11.685Z,83.30
2018-08-10T09:12:40.769Z,80.80
2018-08-10T09:15:11.618Z,80.50
2018-08-10T09:17:43.608Z,78.30
2018-08-10T09:20:12.859Z,75.30
2018-08-10T09:22:42.282Z,76.70
2018-08-10T09:25:13.725Z,73.40
2018-08-10T09:27:42.808Z,74.20
2018-08-10T09:30:13.649Z,72.00
2018-08-10T09:32:42.900Z,73.10
2018-08-10T09:35:12.747Z,75.00
2018-08-10T09:37:41.966Z,74.10
2018-08-10T09:40:14.202Z,74.20
2018-08-10T09:42:43.394Z,71.30
2018-08-10T09:45:13.419Z,70.70
2018-08-10T09:47:43.335Z,69.40
2018-08-10T09:50:14.301Z,67.20
2018-08-10T09:52:52.732Z,69.80
2018-08-10T09:55:25.468Z,68.90
2018-08-10T09:57:56.169Z,65.50
2018-08-10T10:00:30.535Z,65.50
2018-08-10T10:03:05.119Z,67.10
2018-08-10T10:05:34.205Z,64.40
2018-08-10T10:08:03.359Z,66.60
2018-08-10T10:10:32.464Z,66.10
2018-08-10T10:13:01.493Z,63.90
2018-08-10T10:15:30.571Z,62.40
2018-08-10T10:18:00.750Z,60.70
2018-08-10T10:20:29.806Z,59.80
2018-08-10T10:22:58.866Z,59.20
2018-08-10T10:25:28.083Z,57.70
2018-08-10T10:27:57.402Z,58.30
2018-08-10T10:30:26.632Z,58.10
2018-08-10T10:32:55.701Z,57.90
2018-08-10T10:35:25.199Z,56.80
2018-08-10T10:37:54.421Z,57.10
2018-08-10T10:40:23.477Z,58.40
2018-08-10T10:42:52.813Z,57.20
2018-08-10T10:45:21.890Z,55.90
2018-08-10T10:47:51.177Z,58.10
2018-08-10T10:50:20.430Z,57.60
2018-08-10T10:52:50.648Z,57.00
2018-08-10T10:57:50.700Z,55.40
2018-08-10T11:00:20.800Z,57.00
2018-08-10T11:02:50.307Z,56.30
2018-08-10T11:05:19.838Z,54.90
2018-08-10T11:07:48.904Z,55.30
2018-08-10T11:10:19.239Z,55.50
2018-08-10T11:12:48.691Z,53.50
2018-08-10T11:15:17.795Z,51.30
2018-08-10T11:17:46.999Z,50.20
2018-08-10T11:20:16.057Z,50.20
2018-08-10T11:22:45.066Z,51.50
2018-08-10T11:25:14.933Z,51.20
2018-08-10T11:27:44.730Z,52.50
2018-08-10T11:30:15.047Z,51.50
2018-08-10T11:32:44.026Z,52.00
2018-08-10T11:35:13.089Z,53.40
2018-08-10T11:37:42.307Z,53.50
2018-08-10T11:40:13.997Z,55.00
2018-08-10T11:42:43.543Z,53.20
2018-08-10T11:45:15.337Z,52.80
2018-08-10T11:47:44.510Z,52.00
2018-08-10T11:50:13.601Z,51.50
2018-08-10T11:52:43.733Z,49.80
2018-08-10T11:55:14.927Z,49.20
2018-08-10T11:57:44.977Z,49.90
2018-08-10T12:00:15.297Z,49.50
2018-08-10T12:02:44.686Z,50.30
2018-08-10T12:05:14.145Z,47.10
2018-08-10T12:07:43.155Z,48.20
2018-08-10T12:10:12.163Z,47.00
2018-08-10T12:12:41.380Z,46.70
2018-08-10T12:15:12.230Z,48.70
2018-08-10T12:17:41.310Z,50.20
2018-08-10T12:20:11.389Z,49.60
2018-08-10T12:22:42.004Z,51.50
2018-08-10T12:25:11.743Z,50.80
2018-08-10T12:27:40.966Z,52.70
2018-08-10T12:30:11.547Z,50.40
2018-08-10T12:32:40.524Z,51.30
2018-08-10T12:35:10.164Z,52.50
2018-08-10T12:37:39.265Z,52.70
2018-08-10T12:40:08.669Z,50.50
2018-08-10T12:42:38.981Z,51.20
2018-08-10T12:45:08.395Z,51.10
2018-08-10T12:47:38.122Z,50.40
2018-08-10T12:50:07.524Z,49.60
2018-08-10T12:52:36.757Z,48.20
2018-08-10T12:55:05.958Z,47.70
2018-08-10T12:57:35.162Z,48.50
2018-08-10T13:00:06.961Z,49.70
2018-08-10T13:02:35.998Z,48.50
2018-08-10T13:05:05.658Z,48.10
2018-08-10T13:07:35.045Z,48.30
2018-08-10T13:10:04.875Z,48.40
2018-08-10T13:12:34.021Z,49.50
2018-08-10T13:15:03.492Z,49.90
2018-08-10T13:17:32.671Z,49.40
2018-08-10T13:20:01.821Z,50.30
2018-08-10T13:22:30.930Z,49.70
2018-08-10T13:25:00.231Z,48.60
2018-08-10T13:27:29.372Z,48.60
2018-08-10T13:29:58.581Z,48.40
2018-08-10T13:32:27.909Z,45.80
2018-08-10T13:34:56.938Z,47.40
2018-08-10T13:37:26.017Z,48.20
2018-08-10T13:39:55.177Z,48.50
2018-08-10T13:42:25.135Z,47.60
2018-08-10T13:44:54.224Z,46.90
2018-08-10T13:47:23.594Z,46.10
2018-08-10T13:49:52.742Z,44.40
2018-08-10T13:52:21.819Z,47.40
2018-08-10T13:54:50.836Z,49.10
2018-08-10T13:57:19.881Z,50.30
2018-08-10T13:59:49.954Z,50.70
2018-08-10T14:02:18.963Z,49.70
2018-08-10T14:04:48.523Z,50.00
2018-08-10T14:07:17.563Z,51.50
2018-08-10T14:09:46.742Z,51.10
2018-08-10T14:12:15.898Z,51.00
2018-08-10T14:14:44.955Z,51.80
2018-08-10T14:17:13.948Z,50.70
2018-08-10T14:19:42.982Z,49.90
2018-08-10T14:22:13.180Z,49.60
2018-08-10T14:24:42.537Z,48.60
2018-08-10T14:27:11.986Z,48.90
2018-08-10T14:29:41.170Z,49.70
2018-08-10T14:32:10.363Z,49.00
2018-08-10T14:34:39.602Z,49.70
2018-08-10T14:37:08.669Z,50.30
2018-08-10T14:39:37.878Z,49.30
2018-08-10T14:42:07.090Z,49.30
2018-08-10T14:44:36.211Z,48.70
2018-08-10T14:47:05.563Z,48.60
2018-08-10T14:49:34.729Z,48.40
2018-08-10T14:52:03.780Z,48.10
2018-08-10T14:54:32.951Z,47.00
2018-08-10T14:57:02.108Z,46.80
2018-08-10T14:59:31.253Z,47.40
2018-08-10T15:02:00.554Z,48.20
2018-08-10T15:04:29.914Z,48.40
2018-08-10T15:06:59.495Z,45.80
2018-08-10T15:09:28.644Z,47.30
2018-08-10T15:11:57.945Z,47.40
2018-08-10T15:14:27.254Z,47.90
2018-08-10T15:16:56.435Z,50.10
2018-08-10T15:19:25.591Z,49.00
2018-08-10T15:21:54.717Z,49.40
2018-08-10T15:24:24.866Z,49.50
2018-08-10T15:26:54.001Z,48.70
2018-08-10T15:29:23.079Z,48.90
2018-08-10T15:31:52.259Z,48.60
2018-08-10T15:34:21.369Z,48.00
2018-08-10T15:36:50.434Z,48.90
2018-08-10T15:39:19.455Z,47.40
2018-08-10T15:41:48.440Z,48.20
2018-08-10T15:44:17.712Z,49.80
2018-08-10T15:46:46.731Z,49.00
2018-08-10T15:49:15.813Z,49.20
2018-08-10T15:51:45.002Z,48.90
2018-08-10T15:54:13.956Z,49.20
2018-08-10T15:56:43.070Z,49.40
2018-08-10T15:59:12.134Z,49.30
2018-08-10T16:01:41.184Z,49.60
2018-08-10T16:04:10.328Z,49.40
2018-08-10T16:06:39.341Z,49.90
2018-08-10T16:09:10.631Z,49.20
2018-08-10T16:11:39.834Z,49.50
2018-08-10T16:14:09.842Z,49.60
2018-08-10T16:16:38.888Z,50.30
2018-08-10T16:19:08.016Z,49.60
2018-08-10T16:21:37.114Z,49.00
2018-08-10T16:24:06.291Z,49.60
2018-08-10T16:26:35.272Z,50.10
2018-08-10T16:29:04.255Z,49.30
2018-08-10T16:31:33.221Z,50.50
2018-08-10T16:34:02.333Z,49.10
2018-08-10T16:36:31.567Z,48.90
2018-08-10T16:39:00.731Z,49.60
2018-08-10T16:41:29.798Z,49.10
2018-08-10T16:43:58.815Z,49.10
2018-08-10T16:46:27.782Z,49.10
2018-08-10T16:48:56.789Z,49.60
2018-08-10T16:51:26.520Z,48.80
2018-08-10T16:53:55.928Z,48.90
2018-08-10T16:56:25.325Z,48.80
2018-08-10T16:58:54.828Z,49.10
2018-08-10T17:01:23.981Z,49.20
2018-08-10T17:03:53.032Z,49.50
2018-08-10T17:06:22.071Z,49.20
2018-08-10T17:08:51.389Z,49.70
2018-08-10T17:11:20.443Z,50.00
2018-08-10T17:13:49.489Z,50.60
2018-08-10T17:16:18.699Z,51.70
2018-08-10T17:18:47.848Z,50.90
2018-08-10T17:21:16.839Z,51.20
2018-08-10T17:23:45.852Z,51.10
2018-08-10T17:26:15.983Z,51.20
2018-08-10T17:28:44.963Z,51.30
2018-08-10T17:31:13.969Z,51.80
2018-08-10T17:33:43.154Z,51.90
2018-08-10T17:36:12.175Z,51.70
2018-08-10T17:38:41.320Z,52.00
2018-08-10T17:41:10.384Z,52.10
2018-08-10T17:43:39.697Z,52.10
2018-08-10T17:46:08.806Z,52.40
2018-08-10T17:48:37.813Z,52.40
2018-08-10T17:51:06.892Z,52.20
2018-08-10T17:53:36.033Z,52.10
2018-08-10T17:56:05.292Z,52.10
2018-08-10T17:58:34.538Z,52.80
2018-08-10T18:01:03.703Z,52.50
2018-08-10T18:03:32.819Z,52.90
2018-08-10T18:06:02.043Z,53.20
2018-08-10T18:08:31.160Z,54.10
2018-08-10T18:11:00.236Z,53.90
2018-08-10T18:13:29.581Z,55.30
2018-08-10T18:15:58.716Z,55.00
2018-08-10T18:18:27.752Z,54.90
2018-08-10T18:20:56.848Z,55.00
2018-08-10T18:23:25.897Z,55.40
2018-08-10T18:25:54.996Z,55.90
2018-08-10T18:28:24.120Z,56.40
2018-08-10T18:30:54.894Z,56.40
2018-08-10T18:33:23.952Z,56.60
2018-08-10T18:35:54.919Z,56.70
2018-08-10T18:38:23.923Z,56.90
2018-08-10T18:40:53.008Z,57.10
2018-08-10T18:43:21.978Z,57.90
2018-08-10T18:45:51.000Z,57.60
2018-08-10T18:48:19.994Z,57.90
2018-08-10T18:50:49.147Z,57.80
2018-08-10T18:53:18.025Z,57.90
2018-08-10T18:55:47.035Z,58.00
2018-08-10T18:58:16.262Z,58.40
2018-08-10T19:00:45.502Z,58.00
2018-08-10T19:03:14.612Z,58.40
2018-08-10T19:05:43.642Z,58.50
2018-08-10T19:08:12.658Z,58.60
2018-08-10T19:10:41.778Z,59.00
2018-08-10T19:13:10.799Z,59.30
2018-08-10T19:15:39.838Z,59.60
2018-08-10T19:18:09.132Z,60.00
2018-08-10T19:20:38.139Z,59.80
2018-08-10T19:23:07.219Z,60.20
2018-08-10T19:25:36.165Z,60.10
2018-08-10T19:28:05.149Z,60.70
2018-08-10T19:30:34.392Z,61.00
2018-08-10T19:33:03.348Z,60.90
2018-08-10T19:35:32.322Z,61.10
2018-08-10T19:38:01.377Z,61.80
2018-08-10T19:40:30.619Z,62.20
2018-08-10T19:42:59.662Z,61.60
2018-08-10T19:45:28.761Z,62.10
2018-08-10T19:47:57.843Z,62.70
2018-08-10T19:50:26.845Z,62.40
2018-08-10T19:52:55.961Z,62.20
2018-08-10T19:55:25.049Z,62.40
2018-08-10T19:57:54.184Z,63.00
2018-08-10T20:00:24.679Z,63.20
2018-08-10T20:02:53.904Z,63.30
2018-08-10T20:05:22.947Z,63.50
2018-08-10T20:07:51.977Z,63.70
2018-08-10T20:10:21.093Z,64.10
2018-08-10T20:12:50.070Z,63.70
2018-08-10T20:15:19.457Z,63.20
2018-08-10T20:17:48.425Z,63.30
2018-08-10T20:20:18.848Z,63.30
2018-08-10T20:22:48.069Z,63.50
2018-08-10T20:25:17.185Z,63.50
2018-08-10T20:27:46.362Z,63.70
2018-08-10T20:30:17.174Z,63.30
2018-08-10T20:32:46.732Z,64.10
2018-08-10T20:35:17.400Z,64.30
2018-08-10T20:37:46.626Z,64.50
2018-08-10T20:40:17.427Z,64.60
2018-08-10T20:42:46.984Z,63.90
2018-08-10T20:45:17.185Z,64.40
2018-08-10T20:47:46.206Z,64.70
2018-08-10T20:50:22.926Z,64.30
2018-08-10T20:52:52.187Z,64.70
2018-08-10T20:55:21.800Z,64.30
2018-08-10T20:57:51.074Z,64.30
2018-08-10T21:00:20.151Z,64.20
2018-08-10T21:02:49.261Z,64.20
2018-08-10T21:05:18.399Z,64.70
2018-08-10T21:07:47.506Z,64.50
2018-08-10T21:10:17.190Z,64.10
2018-08-10T21:12:46.799Z,64.40
2018-08-10T21:15:16.514Z,64.50
2018-08-10T21:17:46.168Z,64.40
2018-08-10T21:20:17.226Z,63.70
2018-08-10T21:22:46.651Z,64.00
2018-08-10T21:25:16.886Z,64.70
2018-08-10T21:27:46.069Z,64.70
2018-08-10T21:30:18.024Z,64.90
2018-08-10T21:32:47.907Z,64.60
2018-08-10T21:35:17.136Z,64.60
2018-08-10T21:37:48.381Z,64.40
2018-08-10T21:40:17.725Z,64.60
2018-08-10T21:42:46.814Z,64.90
2018-08-10T21:45:15.932Z,65.50
2018-08-10T21:47:44.975Z,65.40
2018-08-10T21:50:14.890Z,65.70
2018-08-10T21:52:44.695Z,65.40
2018-08-10T21:55:13.801Z,65.50
2018-08-10T21:57:42.886Z,65.30
2018-08-10T22:00:24.770Z,65.50
2018-08-10T22:02:53.893Z,65.50
2018-08-10T22:05:23.020Z,66.30
2018-08-10T22:07:52.107Z,66.10
2018-08-10T22:10:21.157Z,66.70
2018-08-10T22:12:50.222Z,66.10
2018-08-10T22:15:24.746Z,66.40
2018-08-10T22:17:59.398Z,66.50
2018-08-10T22:20:28.450Z,66.30
2018-08-10T22:22:57.506Z,67.00
2018-08-10T22:25:26.606Z,67.20
2018-08-10T22:27:55.635Z,67.00
2018-08-10T22:30:24.674Z,67.10
2018-08-10T22:32:53.793Z,67.40
2018-08-10T22:35:23.133Z,67.30
2018-08-10T22:37:52.159Z,67.80
2018-08-10T22:40:21.560Z,67.70
2018-08-10T22:42:50.569Z,67.70
2018-08-10T22:45:19.821Z,67.70
2018-08-10T22:47:49.110Z,68.20
2018-08-10T22:50:18.149Z,68.50
2018-08-10T22:52:47.333Z,68.30
2018-08-10T22:55:16.350Z,68.60
2018-08-10T22:57:45.346Z,68.40
2018-08-10T23:00:14.568Z,68.60
2018-08-10T23:02:43.759Z,69.20
2018-08-10T23:05:12.929Z,68.90
2018-08-10T23:07:42.323Z,69.20
2018-08-10T23:10:13.195Z,69.60
2018-08-10T23:12:42.597Z,69.70
2018-08-10T23:15:12.222Z,69.80
2018-08-10T23:17:41.644Z,70.00
2018-08-10T23:20:13.125Z,70.10
2018-08-10T23:22:42.131Z,70.40
2018-08-10T23:25:12.980Z,70.80
2018-08-10T23:27:43.710Z,71.00
2018-08-10T23:30:14.824Z,71.60
2018-08-10T23:32:44.691Z,72.20
2018-08-10T23:35:13.829Z,71.80
2018-08-10T23:37:42.910Z,72.40
2018-08-10T23:40:13.498Z,73.60
2018-08-10T23:42:42.962Z,73.80
2018-08-10T23:45:13.825Z,75.20
2018-08-10T23:47:43.762Z,78.00
2018-08-10T23:50:15.064Z,81.30
2018-08-10T23:52:44.332Z,85.40
2018-08-10T23:55:15.184Z,87.40
2018-08-10T23:57:44.248Z,88.80
